Pagrindinis puslapis
METAR-TAF:

METAR-TAF

Oro uostai :

Gifu, Japonija

platuma: 35-23N, ilguma: 136-52E, Aukštis: 39 m

Dabartinis oras

Ataskaita buvo paskelbta 4 valandos ir 48 minutes, ne 06:35 UTC
Vėjas 4 kt iš Vakarų/Pietvakarių, svyruoja nuo Pietvakarių ir Vakarų/Šiaurės Vakarų
Temperatūra 13°C
Drėgmė 41%
Slėgis 1021 hPa
Matomumas 10 km arba daugiau
Mažai debesys ne aukštis 6000 ft
Išsisklaidę debesys ne aukštis 15000 ft
Su prošvaistėmis ne aukštis 25000 ft

METAR: RJNG 260635Z 25004KT 220V290 9999 FEW060 SCT150 BKN250 13/00 Q1021 RMK 1SC060 3AC150 A3016

Laikas: 20:23 (11:23 UTC)


TAF: trūkstamas

Orai ataskaitas ir orų prognozės (METAR, TAF).

turimą stotys yra geltonos ir raudonos taškus žemėlapyje.

Perkelti pele per norėdami pamatyti stoties vardą.

Tada spustelėkite, norėdami matyti oro stebėjimo ir prognozės.

Norėdami pakeisti žemėlapį: spustelėkite ant žalios mygtukų su juodo kryžiaus žemyn,; žalią mygtuką su brūkšneliu, jei norite nutolinti; arba žalių rodyklių gretimoms žemėlapius.


METAR-TAF: